createdAt,value
2023-11-15T00:04:18.998Z,9.60
2023-11-15T00:07:48.993Z,9.50
2023-11-15T00:14:06.997Z,9.60
2023-11-15T00:20:23.986Z,9.70
2023-11-15T00:23:19.026Z,9.70
2023-11-15T00:29:37.044Z,9.70
2023-11-15T00:32:49.474Z,9.70
2023-11-15T00:36:20.104Z,9.70
2023-11-15T00:39:49.971Z,9.70
2023-11-15T00:43:17.849Z,9.70
2023-11-15T00:49:29.164Z,9.70
2023-11-15T00:52:58.989Z,9.60
2023-11-15T00:56:29.068Z,9.70
2023-11-15T00:59:55.036Z,9.60
2023-11-15T01:03:25.131Z,9.60
2023-11-15T01:05:56.803Z,9.60
2023-11-15T01:09:11.034Z,9.60
2023-11-15T01:15:29.978Z,9.60
2023-11-15T01:19:00.032Z,9.60
2023-11-15T01:22:30.010Z,9.70
2023-11-15T01:26:00.067Z,9.70
2023-11-15T01:28:39.228Z,9.60
2023-11-15T01:31:15.086Z,9.60
2023-11-15T01:34:20.511Z,9.70
2023-11-15T01:37:32.053Z,9.70
2023-11-15T01:43:56.334Z,9.70
2023-11-15T01:46:57.178Z,9.60
2023-11-15T01:53:08.969Z,9.70
2023-11-15T01:59:20.595Z,9.70
2023-11-15T02:02:15.946Z,9.60
2023-11-15T02:05:46.078Z,9.70
2023-11-15T02:09:27.059Z,9.70
2023-11-15T02:16:56.096Z,9.60
2023-11-15T02:19:47.009Z,9.70
2023-11-15T02:23:37.184Z,9.60
2023-11-15T02:26:35.161Z,9.60
2023-11-15T02:30:06.283Z,9.60
2023-11-15T02:33:09.138Z,9.60
2023-11-15T02:36:39.135Z,9.60
2023-11-15T02:42:56.147Z,9.60
2023-11-15T02:46:26.216Z,9.60
2023-11-15T02:49:56.126Z,9.70
2023-11-15T02:53:26.174Z,9.60
2023-11-15T02:56:56.204Z,9.70
2023-11-15T03:03:15.381Z,9.50
2023-11-15T03:06:45.165Z,9.40
2023-11-15T03:10:15.149Z,9.50
2023-11-15T03:13:45.175Z,9.50
2023-11-15T03:17:15.060Z,9.50
2023-11-15T03:23:33.137Z,9.50
2023-11-15T03:29:50.174Z,9.50
2023-11-15T03:33:00.222Z,9.50
2023-11-15T03:36:10.165Z,9.60
2023-11-15T03:42:35.179Z,9.60
2023-11-15T03:48:52.157Z,9.60
2023-11-15T03:52:22.105Z,9.60
2023-11-15T03:58:40.179Z,9.70
2023-11-15T04:05:03.402Z,9.60
2023-11-15T04:08:18.639Z,9.60
2023-11-15T04:11:49.252Z,9.60
2023-11-15T04:15:19.225Z,9.70
2023-11-15T04:18:49.157Z,9.50
2023-11-15T04:22:19.150Z,9.60
2023-11-15T04:28:37.136Z,9.50
2023-11-15T04:31:19.251Z,9.50
2023-11-15T04:34:31.674Z,9.50
2023-11-15T04:38:02.284Z,9.50
2023-11-15T04:41:32.153Z,9.50
2023-11-15T04:45:02.263Z,9.50
2023-11-15T04:48:32.327Z,9.50
2023-11-15T04:52:02.204Z,9.60
2023-11-15T04:54:58.183Z,9.60
2023-11-15T04:58:28.212Z,9.60
2023-11-15T05:01:58.209Z,9.60
2023-11-15T05:05:28.231Z,9.60
2023-11-15T05:11:46.412Z,9.60
2023-11-15T05:18:09.493Z,9.50
2023-11-15T05:21:39.258Z,9.50
2023-11-15T05:24:12.114Z,9.50
2023-11-15T05:27:42.294Z,9.40
2023-11-15T05:30:49.198Z,9.40
2023-11-15T05:34:01.895Z,9.40
2023-11-15T05:37:32.277Z,9.40
2023-11-15T05:41:02.275Z,9.30
2023-11-15T05:44:33.229Z,9.30
2023-11-15T05:48:03.273Z,9.30
2023-11-15T05:50:34.482Z,9.30
2023-11-15T05:54:05.246Z,9.40
2023-11-15T05:57:35.301Z,9.30
2023-11-15T06:04:05.301Z,9.40
2023-11-15T06:11:16.270Z,9.30
2023-11-15T06:14:46.303Z,9.30
2023-11-15T06:18:16.320Z,9.40
2023-11-15T06:25:03.270Z,9.50
2023-11-15T06:28:33.236Z,9.50
2023-11-15T06:31:22.247Z,9.50
2023-11-15T06:34:10.821Z,9.60
2023-11-15T06:37:09.587Z,9.50
2023-11-15T06:40:20.638Z,9.50
2023-11-15T06:43:29.352Z,9.50
2023-11-15T06:57:01.200Z,9.70
2023-11-15T07:03:20.495Z,9.70
2023-11-15T07:06:16.383Z,9.70
2023-11-15T07:12:41.943Z,9.80
2023-11-15T07:16:12.699Z,9.90
2023-11-15T07:19:43.389Z,10.00
2023-11-15T07:23:13.352Z,10.10
2023-11-15T07:26:43.312Z,10.30
2023-11-15T07:30:13.395Z,10.50
2023-11-15T07:33:06.439Z,10.50
2023-11-15T07:39:43.029Z,10.50
2023-11-15T07:46:53.390Z,10.70
2023-11-15T07:50:13.299Z,10.70
2023-11-15T07:56:39.988Z,10.50
2023-11-15T08:02:56.778Z,10.50
2023-11-15T08:06:27.404Z,10.50
2023-11-15T08:13:13.406Z,10.50
2023-11-15T08:23:06.494Z,10.40
2023-11-15T08:30:23.368Z,10.50
2023-11-15T08:36:39.806Z,10.50
2023-11-15T08:39:39.284Z,10.60
2023-11-15T08:43:09.420Z,10.70
2023-11-15T08:46:39.455Z,10.60
2023-11-15T08:53:50.431Z,10.60
2023-11-15T08:57:20.426Z,10.60
2023-11-15T09:00:50.438Z,10.30
2023-11-15T09:04:20.478Z,9.80
2023-11-15T09:11:31.367Z,9.30
2023-11-15T09:15:13.902Z,9.10
2023-11-15T09:18:46.335Z,9.00
2023-11-15T09:21:18.134Z,9.00
2023-11-15T09:24:46.424Z,8.80
2023-11-15T09:31:30.790Z,8.70
2023-11-15T09:34:12.892Z,8.50
2023-11-15T09:37:13.696Z,8.40
2023-11-15T09:40:19.377Z,8.40
2023-11-15T09:43:49.460Z,8.30
2023-11-15T09:50:59.558Z,8.20
2023-11-15T09:53:33.941Z,8.00
2023-11-15T09:56:59.367Z,8.00
2023-11-15T10:14:37.440Z,8.70
2023-11-15T10:17:19.455Z,8.60
2023-11-15T10:23:33.052Z,8.20
2023-11-15T10:26:59.682Z,8.00
2023-11-15T10:33:39.877Z,7.80
2023-11-15T10:40:33.225Z,7.70
2023-11-15T10:44:02.489Z,7.60
2023-11-15T10:51:25.557Z,7.70
2023-11-15T10:58:30.531Z,7.90
2023-11-15T11:01:39.755Z,7.90
2023-11-15T11:05:10.450Z,7.80
2023-11-15T11:08:16.499Z,7.60
2023-11-15T11:15:27.425Z,7.50
2023-11-15T11:18:57.594Z,7.50
2023-11-15T11:22:27.481Z,7.40
2023-11-15T11:25:57.557Z,7.40
2023-11-15T11:29:27.665Z,7.20
2023-11-15T11:32:36.741Z,7.20
2023-11-15T11:36:06.522Z,7.10
2023-11-15T11:38:49.311Z,7.10
2023-11-15T11:42:19.556Z,7.20
2023-11-15T11:45:38.586Z,7.30
2023-11-15T11:49:02.504Z,7.40
2023-11-15T11:55:21.537Z,7.00
2023-11-15T11:58:51.625Z,6.90
2023-11-15T12:06:02.598Z,6.70
2023-11-15T12:12:33.592Z,6.60
2023-11-15T12:16:03.527Z,6.50
2023-11-15T12:19:30.822Z,6.50
2023-11-15T12:22:27.853Z,6.40
2023-11-15T12:25:57.764Z,6.50
2023-11-15T12:29:15.659Z,6.60
2023-11-15T12:35:27.400Z,6.60
2023-11-15T12:45:34.046Z,6.50
2023-11-15T12:49:03.625Z,6.40
2023-11-15T12:56:14.673Z,6.20
2023-11-15T12:59:44.592Z,6.10
2023-11-15T13:06:55.557Z,6.20
2023-11-15T13:10:08.769Z,6.10
2023-11-15T13:13:38.657Z,6.00
2023-11-15T13:16:35.956Z,6.00
2023-11-15T13:19:56.773Z,6.00
2023-11-15T13:26:07.567Z,5.90
2023-11-15T13:29:37.654Z,5.80
2023-11-15T13:32:08.466Z,5.70
2023-11-15T13:34:58.578Z,5.70
2023-11-15T13:38:13.426Z,5.70
2023-11-15T13:41:43.619Z,5.70
2023-11-15T13:45:01.574Z,5.60
2023-11-15T13:48:32.752Z,5.60
2023-11-15T13:51:19.855Z,5.50
2023-11-15T13:54:50.812Z,5.40
2023-11-15T14:02:20.682Z,5.20
2023-11-15T14:05:50.620Z,5.10
2023-11-15T14:08:55.908Z,5.10
2023-11-15T14:12:14.659Z,4.90
2023-11-15T14:19:31.241Z,4.80
2023-11-15T14:30:22.732Z,4.40
2023-11-15T14:33:53.729Z,4.50
2023-11-15T14:36:59.084Z,4.40
2023-11-15T14:40:29.598Z,4.40
2023-11-15T14:43:59.604Z,4.30
2023-11-15T14:46:34.531Z,4.40
2023-11-15T14:50:04.598Z,4.40
2023-11-15T14:53:34.682Z,4.40
2023-11-15T14:57:04.678Z,4.50
2023-11-15T15:00:34.641Z,4.50
2023-11-15T15:03:48.767Z,4.50
2023-11-15T15:10:25.991Z,4.40
2023-11-15T15:16:35.952Z,4.40
2023-11-15T15:20:06.600Z,4.50
2023-11-15T15:23:36.654Z,4.40
2023-11-15T15:27:06.717Z,4.40
2023-11-15T15:33:34.834Z,4.30
2023-11-15T15:36:05.087Z,4.30
2023-11-15T15:39:03.026Z,4.30
2023-11-15T15:46:00.455Z,4.20
2023-11-15T15:48:56.039Z,4.30
2023-11-15T15:56:07.712Z,4.20
2023-11-15T15:59:02.693Z,4.20
2023-11-15T16:06:02.910Z,4.20
2023-11-15T16:12:15.570Z,4.20
2023-11-15T16:18:33.751Z,4.20
2023-11-15T16:22:07.948Z,4.10
2023-11-15T16:28:24.761Z,4.10
2023-11-15T16:31:54.768Z,4.10
2023-11-15T16:35:08.761Z,4.10
2023-11-15T16:38:29.717Z,4.10
2023-11-15T16:41:59.745Z,4.10
2023-11-15T16:45:29.713Z,4.00
2023-11-15T16:48:09.811Z,4.10
2023-11-15T16:58:57.021Z,4.10
2023-11-15T17:05:09.375Z,4.00
2023-11-15T17:12:19.868Z,4.10
2023-11-15T17:15:33.833Z,4.00
2023-11-15T17:21:47.484Z,4.10
2023-11-15T17:28:58.746Z,4.10
2023-11-15T17:32:01.772Z,4.10
2023-11-15T17:35:07.553Z,4.10
2023-11-15T17:38:21.016Z,4.10
2023-11-15T17:40:57.791Z,4.10
2023-11-15T17:44:27.760Z,4.10
2023-11-15T17:50:44.780Z,4.00
2023-11-15T17:54:14.948Z,4.10
2023-11-15T17:57:34.623Z,4.10
2023-11-15T18:01:04.744Z,4.10
2023-11-15T18:03:43.857Z,4.00
2023-11-15T18:07:13.756Z,4.00
2023-11-15T18:10:43.830Z,3.90
2023-11-15T18:14:13.791Z,3.90
2023-11-15T18:17:43.860Z,3.90
2023-11-15T18:21:02.711Z,4.00
2023-11-15T18:24:33.003Z,4.10
2023-11-15T18:28:03.807Z,4.10
2023-11-15T18:34:24.795Z,4.00
2023-11-15T18:37:16.952Z,4.00
2023-11-15T18:40:47.762Z,3.90
2023-11-15T18:47:58.861Z,3.90
2023-11-15T18:51:48.123Z,3.90
2023-11-15T18:55:07.846Z,4.00
2023-11-15T18:58:38.825Z,4.00
2023-11-15T19:05:17.788Z,4.00
2023-11-15T19:13:05.857Z,4.00
2023-11-15T19:16:35.840Z,4.00
2023-11-15T19:19:16.784Z,4.00
2023-11-15T19:33:26.341Z,4.00
2023-11-15T19:36:10.845Z,4.00
2023-11-15T19:38:55.447Z,4.00
2023-11-15T19:45:09.555Z,4.00
2023-11-15T19:51:37.326Z,3.90
2023-11-15T19:58:49.193Z,4.00
2023-11-15T20:02:18.827Z,4.00
2023-11-15T20:08:32.730Z,4.00
2023-11-15T20:14:45.058Z,3.90
2023-11-15T20:18:15.191Z,3.90
2023-11-15T20:21:45.198Z,3.90
2023-11-15T20:25:16.064Z,3.80
2023-11-15T20:28:45.834Z,3.70
2023-11-15T20:32:34.866Z,3.70
2023-11-15T20:35:53.314Z,3.80
2023-11-15T20:39:01.128Z,3.80
2023-11-15T20:42:32.917Z,3.90
2023-11-15T20:45:39.882Z,3.90
2023-11-15T20:52:40.966Z,3.90
2023-11-15T20:56:10.990Z,3.90
2023-11-15T20:59:09.001Z,3.80
2023-11-15T21:03:00.178Z,3.70
2023-11-15T21:10:33.819Z,3.70
2023-11-15T21:14:03.984Z,3.70
2023-11-15T21:17:52.819Z,3.70
2023-11-15T21:20:44.182Z,3.80
2023-11-15T21:24:29.873Z,3.60
2023-11-15T21:27:59.937Z,3.60
2023-11-15T21:35:06.251Z,3.60
2023-11-15T21:41:19.171Z,3.50
2023-11-15T21:43:55.848Z,3.50
2023-11-15T22:01:15.860Z,3.60
2023-11-15T22:04:45.936Z,3.60
2023-11-15T22:07:58.312Z,3.60
2023-11-15T22:11:28.868Z,3.50
2023-11-15T22:14:42.021Z,3.50
2023-11-15T22:18:11.932Z,3.50
2023-11-15T22:24:29.937Z,3.50
2023-11-15T22:27:59.859Z,3.40
2023-11-15T22:31:03.973Z,3.40
2023-11-15T22:34:16.132Z,3.20
2023-11-15T22:40:28.361Z,3.30
2023-11-15T22:50:19.826Z,3.00
2023-11-15T22:53:31.919Z,2.90
2023-11-15T22:57:01.932Z,2.90
2023-11-15T23:03:51.049Z,3.00
2023-11-15T23:06:39.634Z,2.70
2023-11-15T23:09:48.803Z,2.90
2023-11-15T23:12:51.725Z,3.00
2023-11-15T23:19:09.940Z,3.10
2023-11-15T23:22:39.923Z,3.00
2023-11-15T23:28:56.887Z,3.00
2023-11-15T23:32:26.914Z,2.90
2023-11-15T23:38:51.945Z,2.90
2023-11-15T23:42:05.605Z,2.80
2023-11-15T23:45:16.390Z,2.70
2023-11-15T23:51:32.955Z,2.70
2023-11-15T23:55:02.940Z,2.70
